createdAt,value
2019-02-17T00:00:44.823Z,49.03
2019-02-17T00:03:13.561Z,49.10
2019-02-17T00:05:42.327Z,49.14
2019-02-17T00:08:11.062Z,49.00
2019-02-17T00:10:39.826Z,48.98
2019-02-17T00:13:08.565Z,48.98
2019-02-17T00:15:37.353Z,48.98
2019-02-17T00:18:06.244Z,48.96
2019-02-17T00:20:35.031Z,49.13
2019-02-17T00:23:03.782Z,49.13
2019-02-17T00:25:32.620Z,49.00
2019-02-17T00:28:01.426Z,49.09
2019-02-17T00:30:30.254Z,49.07
2019-02-17T00:32:59.003Z,49.10
2019-02-17T00:35:27.871Z,49.02
2019-02-17T00:37:56.617Z,48.94
2019-02-17T00:40:25.360Z,48.95
2019-02-17T00:42:54.130Z,49.01
2019-02-17T00:45:22.866Z,48.99
2019-02-17T00:47:51.634Z,48.99
2019-02-17T00:50:20.371Z,48.90
2019-02-17T00:52:49.138Z,48.98
2019-02-17T00:55:17.878Z,48.93
2019-02-17T00:57:46.649Z,48.81
2019-02-17T01:00:15.468Z,48.81
2019-02-17T01:02:44.243Z,48.86
2019-02-17T01:05:12.978Z,48.80
2019-02-17T01:07:41.814Z,48.80
2019-02-17T01:10:10.566Z,48.71
2019-02-17T01:12:39.333Z,48.74
2019-02-17T01:15:08.853Z,48.71
2019-02-17T01:17:37.618Z,48.81
2019-02-17T01:20:25.823Z,48.74
2019-02-17T01:22:54.588Z,48.81
2019-02-17T01:25:23.330Z,48.80
2019-02-17T01:27:52.166Z,48.59
2019-02-17T01:30:20.899Z,48.66
2019-02-17T01:32:49.740Z,48.58
2019-02-17T01:35:18.476Z,48.43
2019-02-17T01:37:47.235Z,48.44
2019-02-17T01:40:15.976Z,48.56
2019-02-17T01:42:44.743Z,48.53
2019-02-17T01:45:13.476Z,48.47
2019-02-17T01:47:42.243Z,48.39
2019-02-17T01:50:11.061Z,48.41
2019-02-17T01:52:58.852Z,48.25
2019-02-17T01:55:27.590Z,48.45
2019-02-17T01:57:56.428Z,48.38
2019-02-17T02:00:25.320Z,48.28
2019-02-17T02:02:54.099Z,48.20
2019-02-17T02:05:22.938Z,48.27
2019-02-17T02:07:51.822Z,48.18
2019-02-17T02:10:20.586Z,48.08
2019-02-17T02:12:52.602Z,48.06
2019-02-17T02:15:21.342Z,48.01
2019-02-17T02:17:50.172Z,47.92
2019-02-17T02:20:18.929Z,47.99
2019-02-17T02:22:47.704Z,47.95
2019-02-17T02:25:16.459Z,47.91
2019-02-17T02:27:45.237Z,47.90
2019-02-17T02:30:14.003Z,47.89
2019-02-17T02:32:42.834Z,47.92
2019-02-17T02:35:11.600Z,47.83
2019-02-17T02:37:40.433Z,47.86
2019-02-17T02:40:09.172Z,47.83
2019-02-17T02:42:37.982Z,47.81
2019-02-17T02:45:07.660Z,47.81
2019-02-17T02:47:36.421Z,47.85
2019-02-17T02:50:05.762Z,47.82
2019-02-17T02:52:34.498Z,47.77
2019-02-17T02:55:03.273Z,47.78
2019-02-17T02:57:32.013Z,47.68
2019-02-17T03:00:00.777Z,47.61
2019-02-17T03:02:29.519Z,47.74
2019-02-17T03:04:58.292Z,47.72
2019-02-17T03:07:27.097Z,47.68
2019-02-17T03:09:55.866Z,47.72
2019-02-17T03:12:24.675Z,47.72
2019-02-17T03:14:53.507Z,47.69
2019-02-17T03:17:22.291Z,47.53
2019-02-17T03:19:51.078Z,47.59
2019-02-17T03:22:19.809Z,47.54
2019-02-17T03:24:48.574Z,47.66
2019-02-17T03:27:17.312Z,47.64
2019-02-17T03:29:46.072Z,47.59
2019-02-17T03:32:14.904Z,47.70
2019-02-17T03:34:43.659Z,47.61
2019-02-17T03:37:12.470Z,47.45
2019-02-17T03:39:41.609Z,47.62
2019-02-17T03:42:10.353Z,47.64
2019-02-17T03:44:39.115Z,47.47
2019-02-17T03:47:07.863Z,47.59
2019-02-17T03:49:36.626Z,47.55
2019-02-17T03:52:05.366Z,47.51
2019-02-17T03:54:34.123Z,47.47
2019-02-17T03:57:02.875Z,47.46
2019-02-17T03:59:31.717Z,47.50
2019-02-17T04:02:00.459Z,47.50
2019-02-17T04:04:29.221Z,47.44
2019-02-17T04:06:58.036Z,47.23
2019-02-17T04:09:26.870Z,47.41
2019-02-17T04:11:55.668Z,47.43
2019-02-17T04:14:24.437Z,47.35
2019-02-17T04:16:53.248Z,47.37
2019-02-17T04:19:22.041Z,47.37
2019-02-17T04:21:50.783Z,47.34
2019-02-17T04:24:19.550Z,47.32
2019-02-17T04:26:48.306Z,47.39
2019-02-17T04:29:17.066Z,47.38
2019-02-17T04:31:45.810Z,47.49
2019-02-17T04:34:14.578Z,47.40
2019-02-17T04:36:43.322Z,47.35
2019-02-17T04:39:31.371Z,47.37
2019-02-17T04:42:00.111Z,47.39
2019-02-17T04:44:28.869Z,47.40
2019-02-17T04:46:57.606Z,47.37
2019-02-17T04:49:26.339Z,47.27
2019-02-17T04:51:55.164Z,47.16
2019-02-17T04:54:23.895Z,47.19
2019-02-17T04:56:52.671Z,47.16
2019-02-17T04:59:24.414Z,47.11
2019-02-17T05:01:53.185Z,47.07
2019-02-17T05:04:21.916Z,47.06
2019-02-17T05:06:50.759Z,46.94
2019-02-17T05:09:19.491Z,46.89
2019-02-17T05:11:48.250Z,46.83
2019-02-17T05:14:16.991Z,46.84
2019-02-17T05:16:45.769Z,46.86
2019-02-17T05:19:14.536Z,46.89
2019-02-17T05:21:43.376Z,46.81
2019-02-17T05:24:12.182Z,46.73
2019-02-17T05:26:40.950Z,46.71
2019-02-17T05:29:09.699Z,46.66
2019-02-17T05:31:38.539Z,46.63
2019-02-17T05:34:07.274Z,46.59
2019-02-17T05:36:36.105Z,46.61
2019-02-17T05:39:06.127Z,46.63
2019-02-17T05:41:34.895Z,46.56
2019-02-17T05:44:03.667Z,46.54
2019-02-17T05:46:32.424Z,46.47
2019-02-17T05:49:01.164Z,46.44
2019-02-17T05:51:29.927Z,46.40
2019-02-17T05:53:58.737Z,46.40
2019-02-17T05:56:27.513Z,46.37
2019-02-17T05:58:56.320Z,46.35
2019-02-17T06:01:25.163Z,46.37
2019-02-17T06:03:53.906Z,46.35
2019-02-17T06:06:22.671Z,46.28
2019-02-17T06:08:51.468Z,46.22
2019-02-17T06:11:20.228Z,46.22
2019-02-17T06:13:49.038Z,46.22
2019-02-17T06:16:17.803Z,46.22
2019-02-17T06:18:46.567Z,46.24
2019-02-17T06:21:15.327Z,46.21
2019-02-17T06:23:44.070Z,46.16
2019-02-17T06:26:12.827Z,46.18
2019-02-17T06:28:41.636Z,46.05
2019-02-17T06:31:14.426Z,46.09
2019-02-17T06:33:40.869Z,46.01
2019-02-17T06:36:09.613Z,46.01
2019-02-17T06:38:38.370Z,46.04
2019-02-17T06:41:07.219Z,45.93
2019-02-17T06:43:35.996Z,45.96
2019-02-17T06:46:04.808Z,45.94
2019-02-17T06:48:33.574Z,45.94
2019-02-17T06:51:02.356Z,45.92
2019-02-17T06:53:31.128Z,45.85
2019-02-17T06:56:14.476Z,45.81
2019-02-17T06:58:43.351Z,45.77
2019-02-17T07:01:12.167Z,45.85
2019-02-17T07:03:40.932Z,45.81
2019-02-17T07:06:17.695Z,45.78
2019-02-17T07:08:46.524Z,45.77
2019-02-17T07:11:15.270Z,45.73
2019-02-17T07:13:44.391Z,45.60
2019-02-17T07:16:14.312Z,45.69
2019-02-17T07:18:45.221Z,45.55
2019-02-17T07:21:14.350Z,45.61
2019-02-17T07:23:43.107Z,45.46
2019-02-17T07:26:11.921Z,45.44
2019-02-17T07:28:40.867Z,45.32
2019-02-17T07:31:14.569Z,45.15
2019-02-17T07:33:43.398Z,45.21
2019-02-17T07:36:12.148Z,45.22
2019-02-17T07:38:41.351Z,45.19
2019-02-17T07:41:10.212Z,45.29
2019-02-17T07:43:43.098Z,45.35
2019-02-17T07:46:15.107Z,45.30
2019-02-17T07:48:44.173Z,45.30
2019-02-17T07:51:12.937Z,45.24
2019-02-17T07:53:41.778Z,45.20
2019-02-17T07:56:10.731Z,45.20
2019-02-17T07:58:41.041Z,45.19
2019-02-17T08:01:17.589Z,45.10
2019-02-17T08:03:46.792Z,45.00
2019-02-17T08:06:15.744Z,45.01
2019-02-17T08:08:44.612Z,44.92
2019-02-17T08:11:13.352Z,44.88
2019-02-17T08:13:42.531Z,44.83
2019-02-17T08:16:11.302Z,44.77
2019-02-17T08:18:40.096Z,44.77
2019-02-17T08:21:09.035Z,44.68
2019-02-17T08:23:37.889Z,44.65
2019-02-17T08:26:10.543Z,44.62
2019-02-17T08:28:39.648Z,44.57
2019-02-17T08:31:09.334Z,44.48
2019-02-17T08:33:38.100Z,44.43
2019-02-17T08:36:07.311Z,44.41
2019-02-17T08:38:37.641Z,44.29
2019-02-17T08:41:09.789Z,44.26
2019-02-17T08:43:38.890Z,44.01
2019-02-17T08:46:08.515Z,43.91
2019-02-17T08:48:44.312Z,43.86
2019-02-17T08:51:13.063Z,43.77
2019-02-17T08:53:41.921Z,43.70
2019-02-17T08:56:10.816Z,43.62
2019-02-17T08:58:40.176Z,43.55
2019-02-17T09:01:08.947Z,43.51
2019-02-17T09:03:37.695Z,43.37
2019-02-17T09:06:06.544Z,43.29
2019-02-17T09:08:36.800Z,43.22
2019-02-17T09:11:04.954Z,43.09
2019-02-17T09:13:33.711Z,42.94
2019-02-17T09:16:02.478Z,42.88
2019-02-17T09:18:31.227Z,42.82
2019-02-17T09:21:00.102Z,42.77
2019-02-17T09:23:28.851Z,42.70
2019-02-17T09:25:57.888Z,42.68
2019-02-17T09:28:26.644Z,42.62
2019-02-17T09:30:55.487Z,42.61
2019-02-17T09:33:24.303Z,42.59
2019-02-17T09:35:53.898Z,42.56
2019-02-17T09:38:22.723Z,42.51
2019-02-17T09:40:51.514Z,42.42
2019-02-17T09:43:20.267Z,42.41
2019-02-17T09:45:49.155Z,42.35
2019-02-17T09:48:17.903Z,42.35
2019-02-17T09:50:46.677Z,42.34
2019-02-17T09:53:15.532Z,42.28
2019-02-17T09:55:44.304Z,42.30
2019-02-17T09:58:13.198Z,42.35
2019-02-17T10:00:41.967Z,42.34
2019-02-17T10:03:10.720Z,42.39
2019-02-17T10:05:39.492Z,42.43
2019-02-17T10:08:08.304Z,42.45
2019-02-17T10:10:37.177Z,42.47
2019-02-17T10:13:07.203Z,42.47
2019-02-17T10:15:35.989Z,42.49
2019-02-17T10:18:04.742Z,42.47
2019-02-17T10:20:33.616Z,42.48
2019-02-17T10:23:02.367Z,42.50
2019-02-17T10:25:31.212Z,42.52
2019-02-17T10:28:00.044Z,42.53
2019-02-17T10:30:28.889Z,42.53
2019-02-17T10:32:57.781Z,42.55
2019-02-17T10:35:26.649Z,42.50
2019-02-17T10:37:55.470Z,42.52
2019-02-17T10:40:24.313Z,42.51
2019-02-17T10:42:53.186Z,42.52
2019-02-17T10:45:21.970Z,42.50
2019-02-17T10:47:50.723Z,42.51
2019-02-17T10:50:19.548Z,42.52
2019-02-17T10:52:48.318Z,42.48
2019-02-17T10:55:17.160Z,42.51
2019-02-17T10:57:46.043Z,42.58
2019-02-17T11:00:15.677Z,42.56
2019-02-17T11:02:47.119Z,42.67
2019-02-17T11:05:14.225Z,42.69
2019-02-17T11:07:42.999Z,42.73
2019-02-17T11:10:11.954Z,42.81
2019-02-17T11:12:40.726Z,42.87
2019-02-17T11:15:11.718Z,42.94
2019-02-17T11:17:40.510Z,42.93
2019-02-17T11:20:09.401Z,43.03
2019-02-17T11:22:38.266Z,43.06
2019-02-17T11:25:07.251Z,43.14
2019-02-17T11:27:36.233Z,43.21
2019-02-17T11:30:06.147Z,43.21
2019-02-17T11:32:35.062Z,43.15
2019-02-17T11:35:03.922Z,43.20
2019-02-17T11:37:32.701Z,43.30
2019-02-17T11:40:01.462Z,43.31
2019-02-17T11:42:30.339Z,43.33
2019-02-17T11:44:59.114Z,43.32
2019-02-17T11:47:27.977Z,43.39
2019-02-17T11:49:56.717Z,43.45
2019-02-17T11:52:25.636Z,43.53
2019-02-17T11:54:54.549Z,43.56
2019-02-17T11:57:23.317Z,43.62
2019-02-17T11:59:52.130Z,43.68
2019-02-17T12:02:24.991Z,43.72
2019-02-17T12:04:51.509Z,43.82
2019-02-17T12:07:20.271Z,43.86
2019-02-17T12:09:49.024Z,43.88
2019-02-17T12:12:17.819Z,43.97
2019-02-17T12:14:46.523Z,43.99
2019-02-17T12:17:15.356Z,43.98
2019-02-17T12:19:44.125Z,44.03
2019-02-17T12:22:29.673Z,44.10
2019-02-17T12:25:03.870Z,44.15
2019-02-17T12:28:09.752Z,44.13
2019-02-17T12:30:39.800Z,44.21
2019-02-17T12:33:18.427Z,44.26
2019-02-17T12:35:38.239Z,44.34
2019-02-17T12:38:07.011Z,44.39
2019-02-17T12:40:35.748Z,44.45
2019-02-17T12:43:04.517Z,44.46
2019-02-17T12:45:33.254Z,44.48
2019-02-17T12:48:02.014Z,44.50
2019-02-17T12:50:30.753Z,44.54
2019-02-17T12:52:59.592Z,44.52
2019-02-17T12:55:28.444Z,44.52
2019-02-17T12:57:57.212Z,44.55
2019-02-17T13:00:45.041Z,44.52
2019-02-17T13:03:13.809Z,44.41
2019-02-17T13:05:42.550Z,44.37
2019-02-17T13:08:11.311Z,44.39
2019-02-17T13:10:40.146Z,44.42
2019-02-17T13:13:08.913Z,44.45
2019-02-17T13:15:37.668Z,44.56
2019-02-17T13:18:06.668Z,44.59
2019-02-17T13:20:35.436Z,44.51
2019-02-17T13:23:04.356Z,44.55
2019-02-17T13:25:33.171Z,44.57
2019-02-17T13:28:02.009Z,44.44
2019-02-17T13:30:30.748Z,44.49
2019-02-17T13:32:59.510Z,44.52
2019-02-17T13:35:28.263Z,44.37
2019-02-17T13:37:57.028Z,44.41
2019-02-17T13:40:25.832Z,44.52
2019-02-17T13:42:54.620Z,44.48
2019-02-17T13:45:23.367Z,44.57
2019-02-17T13:47:52.181Z,44.54
2019-02-17T13:50:21.062Z,44.50
2019-02-17T13:52:49.809Z,44.59
2019-02-17T13:55:18.586Z,44.51
2019-02-17T13:57:47.332Z,44.50
2019-02-17T14:00:16.206Z,44.34
2019-02-17T14:02:45.026Z,44.49
2019-02-17T14:05:13.868Z,44.49
2019-02-17T14:07:42.717Z,44.48
2019-02-17T14:10:11.572Z,44.50
2019-02-17T14:12:40.317Z,44.46
2019-02-17T14:15:11.731Z,44.46
2019-02-17T14:17:40.484Z,44.57
2019-02-17T14:20:09.956Z,44.39
2019-02-17T14:22:38.697Z,44.46
2019-02-17T14:25:07.842Z,44.49
2019-02-17T14:27:36.578Z,44.57
2019-02-17T14:30:06.374Z,44.58
2019-02-17T14:32:35.116Z,44.70
2019-02-17T14:35:03.934Z,44.71
2019-02-17T14:37:32.679Z,44.69
2019-02-17T14:40:01.453Z,44.74
2019-02-17T14:42:30.189Z,44.78
2019-02-17T14:44:59.031Z,44.77
2019-02-17T14:47:27.764Z,44.73
2019-02-17T14:49:56.536Z,44.72
2019-02-17T14:52:25.354Z,44.73
2019-02-17T14:54:54.203Z,44.70
2019-02-17T14:57:22.956Z,44.68
2019-02-17T14:59:51.812Z,44.68
2019-02-17T15:02:20.549Z,44.62
2019-02-17T15:04:49.312Z,44.57
2019-02-17T15:07:18.190Z,44.54
2019-02-17T15:09:47.025Z,44.50
2019-02-17T15:12:15.843Z,44.40
2019-02-17T15:14:44.814Z,44.30
2019-02-17T15:17:14.844Z,44.15
2019-02-17T15:19:43.796Z,44.25
2019-02-17T15:22:12.544Z,44.30
2019-02-17T15:24:41.389Z,44.31
2019-02-17T15:27:10.156Z,44.36
2019-02-17T15:29:38.999Z,44.42
2019-02-17T15:32:07.830Z,44.44
2019-02-17T15:34:36.639Z,44.48
2019-02-17T15:37:05.463Z,44.52
2019-02-17T15:39:34.231Z,44.61
2019-02-17T15:42:03.065Z,44.71
2019-02-17T15:44:31.912Z,44.87
2019-02-17T15:47:00.934Z,45.00
2019-02-17T15:49:29.693Z,45.14
2019-02-17T15:51:58.440Z,45.21
2019-02-17T15:54:27.198Z,45.13
2019-02-17T15:56:55.934Z,45.20
2019-02-17T15:59:24.708Z,45.33
2019-02-17T16:01:53.528Z,45.44
2019-02-17T16:04:28.530Z,45.52
2019-02-17T16:06:53.204Z,45.57
2019-02-17T16:09:23.145Z,45.60
2019-02-17T16:11:51.894Z,45.63
2019-02-17T16:14:20.737Z,45.73
2019-02-17T16:16:50.569Z,45.88
2019-02-17T16:19:19.368Z,45.99
2019-02-17T16:21:48.337Z,46.09
2019-02-17T16:24:17.083Z,46.09
2019-02-17T16:26:45.917Z,46.16
2019-02-17T16:29:14.659Z,46.24
2019-02-17T16:31:43.429Z,46.30
2019-02-17T16:34:12.183Z,46.30
2019-02-17T16:36:40.950Z,46.38
2019-02-17T16:39:12.972Z,46.47
2019-02-17T16:41:41.824Z,46.52
2019-02-17T16:44:10.744Z,46.59
2019-02-17T16:46:39.510Z,46.67
2019-02-17T16:49:08.249Z,46.73
2019-02-17T16:51:37.010Z,46.81
2019-02-17T16:54:05.751Z,46.87
2019-02-17T16:56:34.540Z,46.96
2019-02-17T16:59:03.350Z,47.03
2019-02-17T17:01:32.818Z,47.06
2019-02-17T17:04:01.639Z,47.09
2019-02-17T17:06:30.401Z,47.11
2019-02-17T17:08:59.269Z,47.11
2019-02-17T17:11:28.040Z,47.17
2019-02-17T17:13:56.843Z,47.22
2019-02-17T17:16:25.660Z,47.28
2019-02-17T17:18:54.582Z,47.36
2019-02-17T17:21:23.369Z,47.44
2019-02-17T17:23:52.114Z,47.48
2019-02-17T17:26:20.948Z,47.46
2019-02-17T17:28:49.681Z,47.46
2019-02-17T17:31:18.513Z,47.50
2019-02-17T17:33:47.258Z,47.51
2019-02-17T17:36:16.162Z,47.51
2019-02-17T17:38:44.901Z,47.54
2019-02-17T17:41:13.665Z,47.58
2019-02-17T17:43:42.409Z,47.57
2019-02-17T17:46:11.248Z,47.66
2019-02-17T17:48:40.072Z,47.67
2019-02-17T17:51:08.852Z,47.66
2019-02-17T17:53:37.601Z,47.71
2019-02-17T17:56:06.365Z,47.72
2019-02-17T17:58:35.206Z,47.75
2019-02-17T18:01:03.969Z,47.75
2019-02-17T18:03:32.710Z,47.71
2019-02-17T18:06:01.591Z,47.79
2019-02-17T18:08:30.313Z,47.85
2019-02-17T18:10:59.068Z,47.84
2019-02-17T18:13:27.841Z,47.88
2019-02-17T18:15:56.647Z,47.88
2019-02-17T18:18:25.404Z,47.93
2019-02-17T18:20:54.173Z,47.91
2019-02-17T18:23:23.276Z,47.91
2019-02-17T18:25:52.089Z,47.92
2019-02-17T18:28:20.862Z,47.96
2019-02-17T18:30:49.615Z,48.00
2019-02-17T18:33:18.382Z,47.98
2019-02-17T18:35:47.116Z,48.02
2019-02-17T18:38:15.948Z,47.97
2019-02-17T18:40:47.796Z,47.97
2019-02-17T18:43:15.260Z,48.03
2019-02-17T18:45:44.093Z,48.10
2019-02-17T18:48:12.859Z,48.08
2019-02-17T18:50:41.766Z,48.16
2019-02-17T18:53:10.525Z,48.22
2019-02-17T18:55:39.400Z,48.28
2019-02-17T18:58:08.180Z,48.25
2019-02-17T19:00:36.992Z,48.26
2019-02-17T19:03:05.763Z,48.30
2019-02-17T19:05:34.502Z,48.32
2019-02-17T19:08:03.305Z,48.38
2019-02-17T19:10:32.055Z,48.36
2019-02-17T19:13:00.821Z,48.40
2019-02-17T19:15:29.565Z,48.44
2019-02-17T19:17:58.410Z,48.43
2019-02-17T19:20:27.445Z,48.41
2019-02-17T19:22:56.264Z,48.38
2019-02-17T19:25:25.018Z,48.18
2019-02-17T19:27:53.806Z,48.13
2019-02-17T19:31:26.917Z,48.25
2019-02-17T19:33:55.697Z,48.29
2019-02-17T19:36:24.514Z,48.32
2019-02-17T19:38:53.459Z,48.35
2019-02-17T19:41:22.280Z,48.37
2019-02-17T19:43:51.054Z,48.44
2019-02-17T19:46:19.870Z,48.39
2019-02-17T19:48:48.639Z,48.46
2019-02-17T19:51:17.472Z,48.52
2019-02-17T19:53:46.242Z,48.59
2019-02-17T19:56:15.089Z,48.62
2019-02-17T19:58:43.882Z,48.60
2019-02-17T20:01:12.702Z,48.74
2019-02-17T20:04:12.369Z,48.63
2019-02-17T20:06:41.146Z,48.57
2019-02-17T20:09:17.850Z,48.61
2019-02-17T20:11:46.635Z,48.58
2019-02-17T20:14:15.577Z,48.62
2019-02-17T20:16:44.330Z,48.77
2019-02-17T20:19:13.184Z,48.88
2019-02-17T20:22:01.267Z,48.99
2019-02-17T20:24:30.047Z,49.02
2019-02-17T20:26:58.794Z,49.04
2019-02-17T20:29:27.562Z,49.03
2019-02-17T20:31:56.306Z,49.17
2019-02-17T20:34:25.075Z,49.22
2019-02-17T20:36:53.816Z,49.21
2019-02-17T20:39:25.704Z,49.30
2019-02-17T20:41:55.220Z,49.26
2019-02-17T20:44:24.517Z,49.26
2019-02-17T20:46:55.707Z,49.36
2019-02-17T20:49:24.480Z,49.41
2019-02-17T20:51:53.268Z,49.43
2019-02-17T20:54:22.264Z,49.43
2019-02-17T20:56:51.001Z,49.50
2019-02-17T20:59:19.867Z,49.42
2019-02-17T21:01:48.686Z,49.47
2019-02-17T21:04:20.117Z,49.48
2019-02-17T21:06:49.751Z,49.41
2019-02-17T21:09:23.823Z,49.46
2019-02-17T21:11:52.645Z,49.23
2019-02-17T21:14:21.486Z,49.25
2019-02-17T21:16:50.355Z,49.47
2019-02-17T21:19:19.185Z,49.54
2019-02-17T21:21:49.028Z,49.29
2019-02-17T21:24:20.937Z,49.37
2019-02-17T21:26:49.859Z,49.32
2019-02-17T21:29:19.661Z,49.56
2019-02-17T21:31:49.130Z,49.49
2019-02-17T21:34:17.931Z,49.33
2019-02-17T21:36:47.312Z,49.50
2019-02-17T21:39:18.454Z,49.34
2019-02-17T21:41:48.650Z,49.18
2019-02-17T21:44:17.418Z,49.17
2019-02-17T21:46:46.238Z,49.03
2019-02-17T21:49:15.076Z,49.33
2019-02-17T21:51:43.894Z,49.49
2019-02-17T21:54:12.656Z,49.07
2019-02-17T21:56:41.399Z,49.33
2019-02-17T21:59:10.245Z,49.19
2019-02-17T22:01:39.067Z,49.25
2019-02-17T22:04:07.912Z,49.51
2019-02-17T22:06:36.793Z,49.47
2019-02-17T22:09:06.605Z,49.64
2019-02-17T22:11:35.357Z,49.69
2019-02-17T22:14:04.128Z,49.47
2019-02-17T22:16:32.867Z,49.87
2019-02-17T22:19:01.656Z,49.70
2019-02-17T22:21:30.394Z,49.89
2019-02-17T22:23:59.162Z,49.71
2019-02-17T22:26:27.894Z,50.12
2019-02-17T22:28:56.730Z,50.00
2019-02-17T22:31:25.473Z,50.02
2019-02-17T22:33:54.259Z,49.88
2019-02-17T22:36:22.997Z,49.89
2019-02-17T22:38:51.842Z,49.90
2019-02-17T22:41:20.694Z,50.09
2019-02-17T22:43:49.612Z,50.06
2019-02-17T22:46:18.431Z,49.93
2019-02-17T22:48:47.173Z,49.92
2019-02-17T22:51:16.004Z,49.68
2019-02-17T22:53:44.813Z,49.97
2019-02-17T22:56:13.577Z,49.99
2019-02-17T22:58:42.324Z,50.07
2019-02-17T23:01:15.162Z,50.04
2019-02-17T23:03:43.901Z,50.04
2019-02-17T23:06:12.669Z,49.75
2019-02-17T23:08:41.410Z,49.99
2019-02-17T23:11:10.178Z,49.97
2019-02-17T23:13:38.917Z,50.01
2019-02-17T23:16:07.681Z,49.95
2019-02-17T23:18:36.435Z,49.87
2019-02-17T23:21:05.382Z,49.82
2019-02-17T23:23:34.120Z,49.88
2019-02-17T23:26:02.913Z,49.93
2019-02-17T23:28:31.661Z,49.90
2019-02-17T23:31:00.440Z,49.87
2019-02-17T23:33:29.171Z,49.82
2019-02-17T23:35:58.091Z,49.91
2019-02-17T23:38:26.832Z,49.92
2019-02-17T23:40:55.668Z,49.90
2019-02-17T23:43:24.404Z,49.88
2019-02-17T23:45:53.175Z,49.89
2019-02-17T23:48:21.939Z,49.85
2019-02-17T23:51:09.802Z,49.87
2019-02-17T23:53:38.549Z,49.90
2019-02-17T23:56:07.340Z,49.90
2019-02-17T23:58:36.074Z,49.83
